sensor_id;sensor_type;location;lat;lon;timestamp;P1;durP1;ratioP1;P2;durP2;ratioP2
39300;SDS011;25019;42.626;23.380;2023-04-24T00:00:54;5.60;;;4.17;;
39300;SDS011;25019;42.626;23.380;2023-04-24T00:03:22;8.03;;;4.20;;
39300;SDS011;25019;42.626;23.380;2023-04-24T00:05:48;5.13;;;4.10;;
39300;SDS011;25019;42.626;23.380;2023-04-24T00:08:15;7.80;;;4.60;;
39300;SDS011;25019;42.626;23.380;2023-04-24T00:10:41;4.97;;;3.83;;
39300;SDS011;25019;42.626;23.380;2023-04-24T00:13:07;4.97;;;4.47;;
39300;SDS011;25019;42.626;23.380;2023-04-24T00:15:32;5.83;;;4.77;;
39300;SDS011;25019;42.626;23.380;2023-04-24T00:17:58;7.23;;;4.90;;
39300;SDS011;25019;42.626;23.380;2023-04-24T00:20:26;6.00;;;5.07;;
39300;SDS011;25019;42.626;23.380;2023-04-24T00:22:53;5.70;;;4.63;;
39300;SDS011;25019;42.626;23.380;2023-04-24T00:25:19;6.13;;;4.47;;
39300;SDS011;25019;42.626;23.380;2023-04-24T00:27:44;5.77;;;4.20;;
39300;SDS011;25019;42.626;23.380;2023-04-24T00:30:10;4.17;;;3.70;;
39300;SDS011;25019;42.626;23.380;2023-04-24T00:32:36;5.77;;;4.57;;
39300;SDS011;25019;42.626;23.380;2023-04-24T00:35:02;5.43;;;4.53;;
39300;SDS011;25019;42.626;23.380;2023-04-24T00:37:28;6.00;;;3.90;;
39300;SDS011;25019;42.626;23.380;2023-04-24T00:39:54;7.60;;;4.40;;
39300;SDS011;25019;42.626;23.380;2023-04-24T00:42:20;7.10;;;4.90;;
39300;SDS011;25019;42.626;23.380;2023-04-24T00:44:45;6.77;;;4.13;;
39300;SDS011;25019;42.626;23.380;2023-04-24T00:47:11;5.60;;;4.30;;
39300;SDS011;25019;42.626;23.380;2023-04-24T00:49:38;7.30;;;4.30;;
39300;SDS011;25019;42.626;23.380;2023-04-24T00:52:04;5.00;;;4.33;;
39300;SDS011;25019;42.626;23.380;2023-04-24T00:54:32;5.93;;;4.80;;
39300;SDS011;25019;42.626;23.380;2023-04-24T00:56:58;7.13;;;4.50;;
39300;SDS011;25019;42.626;23.380;2023-04-24T00:59:25;7.60;;;5.10;;
39300;SDS011;25019;42.626;23.380;2023-04-24T01:01:51;6.87;;;5.20;;
39300;SDS011;25019;42.626;23.380;2023-04-24T01:04:17;6.77;;;5.47;;
39300;SDS011;25019;42.626;23.380;2023-04-24T01:06:43;11.70;;;6.23;;
39300;SDS011;25019;42.626;23.380;2023-04-24T01:09:10;7.47;;;6.27;;
39300;SDS011;25019;42.626;23.380;2023-04-24T01:11:38;9.33;;;7.37;;
39300;SDS011;25019;42.626;23.380;2023-04-24T01:14:06;8.77;;;7.43;;
39300;SDS011;25019;42.626;23.380;2023-04-24T01:16:32;9.60;;;7.37;;
39300;SDS011;25019;42.626;23.380;2023-04-24T01:18:59;15.53;;;7.43;;
39300;SDS011;25019;42.626;23.380;2023-04-24T01:21:26;8.40;;;7.40;;
39300;SDS011;25019;42.626;23.380;2023-04-24T01:23:56;13.23;;;7.97;;
39300;SDS011;25019;42.626;23.380;2023-04-24T01:26:21;11.80;;;8.57;;
39300;SDS011;25019;42.626;23.380;2023-04-24T01:28:48;13.50;;;7.97;;
39300;SDS011;25019;42.626;23.380;2023-04-24T01:31:14;10.77;;;8.00;;
39300;SDS011;25019;42.626;23.380;2023-04-24T01:33:41;11.30;;;8.57;;
39300;SDS011;25019;42.626;23.380;2023-04-24T01:36:08;12.03;;;8.27;;
39300;SDS011;25019;42.626;23.380;2023-04-24T01:38:35;11.73;;;8.67;;
39300;SDS011;25019;42.626;23.380;2023-04-24T01:41:01;15.83;;;8.60;;
39300;SDS011;25019;42.626;23.380;2023-04-24T01:43:27;10.17;;;8.53;;
39300;SDS011;25019;42.626;23.380;2023-04-24T01:45:56;10.77;;;8.37;;
39300;SDS011;25019;42.626;23.380;2023-04-24T01:48:22;9.17;;;8.27;;
39300;SDS011;25019;42.626;23.380;2023-04-24T01:50:48;11.17;;;8.07;;
39300;SDS011;25019;42.626;23.380;2023-04-24T01:53:13;8.90;;;7.30;;
39300;SDS011;25019;42.626;23.380;2023-04-24T01:55:41;13.43;;;7.53;;
39300;SDS011;25019;42.626;23.380;2023-04-24T01:58:06;9.70;;;7.87;;
39300;SDS011;25019;42.626;23.380;2023-04-24T02:00:32;7.50;;;6.50;;
39300;SDS011;25019;42.626;23.380;2023-04-24T02:02:58;7.90;;;7.00;;
39300;SDS011;25019;42.626;23.380;2023-04-24T02:05:25;8.43;;;6.80;;
39300;SDS011;25019;42.626;23.380;2023-04-24T02:07:51;8.53;;;7.13;;
39300;SDS011;25019;42.626;23.380;2023-04-24T02:10:17;11.20;;;6.87;;
39300;SDS011;25019;42.626;23.380;2023-04-24T02:12:43;8.30;;;7.33;;
39300;SDS011;25019;42.626;23.380;2023-04-24T02:15:09;8.17;;;7.17;;
39300;SDS011;25019;42.626;23.380;2023-04-24T02:17:36;7.93;;;6.63;;
39300;SDS011;25019;42.626;23.380;2023-04-24T02:20:03;10.23;;;7.50;;
39300;SDS011;25019;42.626;23.380;2023-04-24T02:22:30;12.07;;;8.53;;
39300;SDS011;25019;42.626;23.380;2023-04-24T02:24:56;11.37;;;9.00;;
39300;SDS011;25019;42.626;23.380;2023-04-24T02:27:21;13.07;;;8.67;;
39300;SDS011;25019;42.626;23.380;2023-04-24T02:29:47;12.00;;;8.30;;
39300;SDS011;25019;42.626;23.380;2023-04-24T02:32:13;13.27;;;8.97;;
39300;SDS011;25019;42.626;23.380;2023-04-24T02:34:42;11.97;;;9.30;;
39300;SDS011;25019;42.626;23.380;2023-04-24T02:37:11;12.13;;;9.23;;
39300;SDS011;25019;42.626;23.380;2023-04-24T02:39:37;12.83;;;9.83;;
39300;SDS011;25019;42.626;23.380;2023-04-24T02:42:03;11.13;;;9.67;;
39300;SDS011;25019;42.626;23.380;2023-04-24T02:44:29;17.03;;;9.00;;
39300;SDS011;25019;42.626;23.380;2023-04-24T02:46:55;10.27;;;8.70;;
39300;SDS011;25019;42.626;23.380;2023-04-24T02:49:21;13.70;;;8.80;;
39300;SDS011;25019;42.626;23.380;2023-04-24T02:51:48;11.10;;;8.60;;
39300;SDS011;25019;42.626;23.380;2023-04-24T02:54:13;11.17;;;8.50;;
39300;SDS011;25019;42.626;23.380;2023-04-24T02:56:39;10.70;;;9.03;;
39300;SDS011;25019;42.626;23.380;2023-04-24T02:59:07;12.00;;;9.70;;
39300;SDS011;25019;42.626;23.380;2023-04-24T03:01:33;14.37;;;9.67;;
39300;SDS011;25019;42.626;23.380;2023-04-24T03:03:58;14.13;;;9.00;;
39300;SDS011;25019;42.626;23.380;2023-04-24T03:06:24;10.87;;;9.30;;
39300;SDS011;25019;42.626;23.380;2023-04-24T03:08:52;13.07;;;9.83;;
39300;SDS011;25019;42.626;23.380;2023-04-24T03:11:18;13.30;;;9.90;;
39300;SDS011;25019;42.626;23.380;2023-04-24T03:13:44;11.63;;;9.63;;
39300;SDS011;25019;42.626;23.380;2023-04-24T03:16:10;12.80;;;9.47;;
39300;SDS011;25019;42.626;23.380;2023-04-24T03:18:36;13.80;;;9.57;;
39300;SDS011;25019;42.626;23.380;2023-04-24T03:21:03;11.90;;;10.40;;
39300;SDS011;25019;42.626;23.380;2023-04-24T03:23:29;15.20;;;10.70;;
39300;SDS011;25019;42.626;23.380;2023-04-24T03:25:55;14.20;;;9.80;;
39300;SDS011;25019;42.626;23.380;2023-04-24T03:28:21;14.27;;;10.40;;
39300;SDS011;25019;42.626;23.380;2023-04-24T03:30:56;12.07;;;10.13;;
39300;SDS011;25019;42.626;23.380;2023-04-24T03:33:23;11.60;;;9.30;;
39300;SDS011;25019;42.626;23.380;2023-04-24T03:35:57;11.37;;;9.80;;
39300;SDS011;25019;42.626;23.380;2023-04-24T03:38:23;11.80;;;9.87;;
39300;SDS011;25019;42.626;23.380;2023-04-24T03:41:16;13.57;;;10.23;;
39300;SDS011;25019;42.626;23.380;2023-04-24T03:43:49;11.87;;;9.50;;
39300;SDS011;25019;42.626;23.380;2023-04-24T03:46:15;11.63;;;9.03;;
39300;SDS011;25019;42.626;23.380;2023-04-24T03:48:46;10.07;;;8.57;;
39300;SDS011;25019;42.626;23.380;2023-04-24T03:51:15;10.57;;;9.00;;
39300;SDS011;25019;42.626;23.380;2023-04-24T03:53:44;14.00;;;9.23;;
39300;SDS011;25019;42.626;23.380;2023-04-24T03:56:13;11.27;;;8.70;;
39300;SDS011;25019;42.626;23.380;2023-04-24T03:58:40;12.93;;;8.17;;
39300;SDS011;25019;42.626;23.380;2023-04-24T04:01:06;10.77;;;7.67;;
39300;SDS011;25019;42.626;23.380;2023-04-24T04:03:45;11.60;;;7.87;;
39300;SDS011;25019;42.626;23.380;2023-04-24T04:06:13;10.03;;;7.83;;
39300;SDS011;25019;42.626;23.380;2023-04-24T04:08:38;10.23;;;8.20;;
39300;SDS011;25019;42.626;23.380;2023-04-24T04:11:04;12.73;;;7.67;;
39300;SDS011;25019;42.626;23.380;2023-04-24T04:13:30;11.20;;;8.30;;
39300;SDS011;25019;42.626;23.380;2023-04-24T04:15:56;12.10;;;7.50;;
39300;SDS011;25019;42.626;23.380;2023-04-24T04:18:22;8.40;;;7.43;;
39300;SDS011;25019;42.626;23.380;2023-04-24T04:20:48;9.00;;;7.00;;
39300;SDS011;25019;42.626;23.380;2023-04-24T04:23:14;12.60;;;7.17;;
39300;SDS011;25019;42.626;23.380;2023-04-24T04:25:49;9.60;;;7.30;;
39300;SDS011;25019;42.626;23.380;2023-04-24T04:28:21;11.40;;;7.77;;
39300;SDS011;25019;42.626;23.380;2023-04-24T04:30:47;9.63;;;7.20;;
39300;SDS011;25019;42.626;23.380;2023-04-24T04:33:13;10.87;;;7.00;;
39300;SDS011;25019;42.626;23.380;2023-04-24T04:35:40;8.30;;;6.00;;
39300;SDS011;25019;42.626;23.380;2023-04-24T04:38:06;12.90;;;7.27;;
39300;SDS011;25019;42.626;23.380;2023-04-24T04:40:56;11.23;;;6.77;;
39300;SDS011;25019;42.626;23.380;2023-04-24T04:43:23;10.63;;;6.70;;
39300;SDS011;25019;42.626;23.380;2023-04-24T04:45:51;9.90;;;6.83;;
39300;SDS011;25019;42.626;23.380;2023-04-24T04:48:45;8.83;;;6.53;;
39300;SDS011;25019;42.626;23.380;2023-04-24T04:51:10;9.83;;;6.43;;
39300;SDS011;25019;42.626;23.380;2023-04-24T04:53:36;12.27;;;7.80;;
39300;SDS011;25019;42.626;23.380;2023-04-24T04:56:02;10.07;;;7.53;;
39300;SDS011;25019;42.626;23.380;2023-04-24T04:58:35;11.43;;;7.90;;
39300;SDS011;25019;42.626;23.380;2023-04-24T05:01:05;9.23;;;7.53;;
39300;SDS011;25019;42.626;23.380;2023-04-24T05:03:38;9.47;;;6.83;;
39300;SDS011;25019;42.626;23.380;2023-04-24T05:06:07;10.73;;;8.33;;
39300;SDS011;25019;42.626;23.380;2023-04-24T05:08:36;13.03;;;8.70;;
39300;SDS011;25019;42.626;23.380;2023-04-24T05:11:04;11.63;;;8.13;;
39300;SDS011;25019;42.626;23.380;2023-04-24T05:13:31;13.60;;;8.77;;
39300;SDS011;25019;42.626;23.380;2023-04-24T05:15:58;13.03;;;7.70;;
39300;SDS011;25019;42.626;23.380;2023-04-24T05:18:25;11.23;;;8.20;;
39300;SDS011;25019;42.626;23.380;2023-04-24T05:20:50;10.93;;;7.83;;
39300;SDS011;25019;42.626;23.380;2023-04-24T05:23:16;13.73;;;7.53;;
39300;SDS011;25019;42.626;23.380;2023-04-24T05:25:44;15.77;;;8.93;;
39300;SDS011;25019;42.626;23.380;2023-04-24T05:28:11;11.77;;;8.57;;
39300;SDS011;25019;42.626;23.380;2023-04-24T05:30:37;11.53;;;8.37;;
39300;SDS011;25019;42.626;23.380;2023-04-24T05:33:03;12.67;;;9.07;;
39300;SDS011;25019;42.626;23.380;2023-04-24T05:35:32;10.00;;;7.80;;
39300;SDS011;25019;42.626;23.380;2023-04-24T05:37:57;11.93;;;8.33;;
39300;SDS011;25019;42.626;23.380;2023-04-24T05:40:23;12.77;;;9.03;;
39300;SDS011;25019;42.626;23.380;2023-04-24T05:42:49;13.47;;;9.27;;
39300;SDS011;25019;42.626;23.380;2023-04-24T05:45:14;12.60;;;9.63;;
39300;SDS011;25019;42.626;23.380;2023-04-24T05:47:42;10.87;;;8.27;;
39300;SDS011;25019;42.626;23.380;2023-04-24T05:50:10;15.27;;;9.23;;
39300;SDS011;25019;42.626;23.380;2023-04-24T05:52:36;13.03;;;8.13;;
39300;SDS011;25019;42.626;23.380;2023-04-24T05:55:05;8.60;;;7.17;;
39300;SDS011;25019;42.626;23.380;2023-04-24T05:57:32;11.43;;;7.70;;
39300;SDS011;25019;42.626;23.380;2023-04-24T06:00:02;13.97;;;7.50;;
39300;SDS011;25019;42.626;23.380;2023-04-24T06:02:38;10.67;;;7.63;;
39300;SDS011;25019;42.626;23.380;2023-04-24T06:05:07;10.03;;;7.37;;
39300;SDS011;25019;42.626;23.380;2023-04-24T06:07:33;12.93;;;7.77;;
39300;SDS011;25019;42.626;23.380;2023-04-24T06:10:02;10.70;;;7.97;;
39300;SDS011;25019;42.626;23.380;2023-04-24T06:12:34;14.87;;;8.30;;
39300;SDS011;25019;42.626;23.380;2023-04-24T06:15:05;10.17;;;7.90;;
39300;SDS011;25019;42.626;23.380;2023-04-24T06:17:49;10.57;;;7.50;;
39300;SDS011;25019;42.626;23.380;2023-04-24T06:20:16;13.00;;;8.27;;
39300;SDS011;25019;42.626;23.380;2023-04-24T06:22:42;13.93;;;8.37;;
39300;SDS011;25019;42.626;23.380;2023-04-24T06:25:09;11.27;;;8.20;;
39300;SDS011;25019;42.626;23.380;2023-04-24T06:27:35;12.23;;;8.27;;
39300;SDS011;25019;42.626;23.380;2023-04-24T06:30:01;10.40;;;7.70;;
39300;SDS011;25019;42.626;23.380;2023-04-24T06:32:27;11.40;;;7.97;;
39300;SDS011;25019;42.626;23.380;2023-04-24T06:34:52;12.33;;;8.73;;
39300;SDS011;25019;42.626;23.380;2023-04-24T06:37:18;16.10;;;8.83;;
39300;SDS011;25019;42.626;23.380;2023-04-24T06:39:45;13.40;;;8.70;;
39300;SDS011;25019;42.626;23.380;2023-04-24T06:42:11;9.67;;;7.97;;
39300;SDS011;25019;42.626;23.380;2023-04-24T06:44:37;14.80;;;8.43;;
39300;SDS011;25019;42.626;23.380;2023-04-24T06:47:06;12.77;;;8.67;;
39300;SDS011;25019;42.626;23.380;2023-04-24T06:49:36;10.17;;;7.97;;
39300;SDS011;25019;42.626;23.380;2023-04-24T06:52:02;15.10;;;7.83;;
39300;SDS011;25019;42.626;23.380;2023-04-24T06:54:29;9.43;;;8.17;;
39300;SDS011;25019;42.626;23.380;2023-04-24T06:56:55;10.00;;;8.07;;
39300;SDS011;25019;42.626;23.380;2023-04-24T06:59:23;13.17;;;7.70;;
39300;SDS011;25019;42.626;23.380;2023-04-24T07:01:52;10.67;;;7.13;;
39300;SDS011;25019;42.626;23.380;2023-04-24T07:04:20;11.03;;;6.90;;
39300;SDS011;25019;42.626;23.380;2023-04-24T07:06:46;8.87;;;6.37;;
39300;SDS011;25019;42.626;23.380;2023-04-24T07:09:12;13.40;;;7.40;;
39300;SDS011;25019;42.626;23.380;2023-04-24T07:11:44;10.67;;;7.10;;
39300;SDS011;25019;42.626;23.380;2023-04-24T07:14:10;7.53;;;6.27;;
39300;SDS011;25019;42.626;23.380;2023-04-24T07:16:36;9.37;;;6.67;;
39300;SDS011;25019;42.626;23.380;2023-04-24T07:19:02;11.87;;;6.37;;
39300;SDS011;25019;42.626;23.380;2023-04-24T07:21:28;14.23;;;7.40;;
39300;SDS011;25019;42.626;23.380;2023-04-24T07:23:53;12.60;;;7.00;;
39300;SDS011;25019;42.626;23.380;2023-04-24T07:26:19;8.83;;;7.30;;
39300;SDS011;25019;42.626;23.380;2023-04-24T07:28:46;10.43;;;7.30;;
39300;SDS011;25019;42.626;23.380;2023-04-24T07:31:11;11.67;;;7.40;;
39300;SDS011;25019;42.626;23.380;2023-04-24T07:33:37;10.93;;;7.37;;
39300;SDS011;25019;42.626;23.380;2023-04-24T07:36:03;10.97;;;7.73;;
39300;SDS011;25019;42.626;23.380;2023-04-24T07:38:29;12.13;;;7.30;;
39300;SDS011;25019;42.626;23.380;2023-04-24T07:40:55;11.57;;;6.90;;
39300;SDS011;25019;42.626;23.380;2023-04-24T07:43:21;8.47;;;6.50;;
39300;SDS011;25019;42.626;23.380;2023-04-24T07:45:48;8.10;;;7.00;;
39300;SDS011;25019;42.626;23.380;2023-04-24T07:48:17;10.80;;;6.70;;
39300;SDS011;25019;42.626;23.380;2023-04-24T07:50:43;10.03;;;7.57;;
39300;SDS011;25019;42.626;23.380;2023-04-24T07:53:09;8.73;;;6.93;;
39300;SDS011;25019;42.626;23.380;2023-04-24T07:55:35;9.87;;;6.50;;
39300;SDS011;25019;42.626;23.380;2023-04-24T07:58:01;9.17;;;6.27;;
39300;SDS011;25019;42.626;23.380;2023-04-24T08:00:27;10.17;;;6.60;;
39300;SDS011;25019;42.626;23.380;2023-04-24T08:02:52;11.70;;;7.30;;
39300;SDS011;25019;42.626;23.380;2023-04-24T08:05:18;9.37;;;7.10;;
39300;SDS011;25019;42.626;23.380;2023-04-24T08:07:45;11.70;;;7.60;;
39300;SDS011;25019;42.626;23.380;2023-04-24T08:10:13;9.10;;;6.37;;
39300;SDS011;25019;42.626;23.380;2023-04-24T08:12:39;7.97;;;5.93;;
39300;SDS011;25019;42.626;23.380;2023-04-24T08:15:05;10.47;;;6.13;;
39300;SDS011;25019;42.626;23.380;2023-04-24T08:17:32;10.37;;;6.27;;
39300;SDS011;25019;42.626;23.380;2023-04-24T08:19:59;7.63;;;5.90;;
39300;SDS011;25019;42.626;23.380;2023-04-24T08:22:29;10.17;;;5.97;;
39300;SDS011;25019;42.626;23.380;2023-04-24T08:24:55;11.07;;;6.47;;
39300;SDS011;25019;42.626;23.380;2023-04-24T08:27:22;6.60;;;5.33;;
39300;SDS011;25019;42.626;23.380;2023-04-24T08:29:52;9.27;;;5.90;;
39300;SDS011;25019;42.626;23.380;2023-04-24T08:32:18;6.63;;;5.13;;
39300;SDS011;25019;42.626;23.380;2023-04-24T08:34:44;10.30;;;6.50;;
39300;SDS011;25019;42.626;23.380;2023-04-24T08:37:10;8.63;;;5.73;;
39300;SDS011;25019;42.626;23.380;2023-04-24T08:39:36;9.23;;;5.63;;
39300;SDS011;25019;42.626;23.380;2023-04-24T08:42:02;7.80;;;5.90;;
39300;SDS011;25019;42.626;23.380;2023-04-24T08:44:31;6.00;;;5.40;;
39300;SDS011;25019;42.626;23.380;2023-04-24T08:46:57;9.43;;;6.00;;
39300;SDS011;25019;42.626;23.380;2023-04-24T08:49:23;8.53;;;6.40;;
39300;SDS011;25019;42.626;23.380;2023-04-24T08:51:49;7.80;;;5.60;;
39300;SDS011;25019;42.626;23.380;2023-04-24T08:54:17;8.63;;;5.67;;
39300;SDS011;25019;42.626;23.380;2023-04-24T08:56:44;6.23;;;5.53;;
39300;SDS011;25019;42.626;23.380;2023-04-24T08:59:12;6.37;;;5.33;;
39300;SDS011;25019;42.626;23.380;2023-04-24T09:01:39;9.40;;;5.77;;
39300;SDS011;25019;42.626;23.380;2023-04-24T09:04:05;7.40;;;5.60;;
39300;SDS011;25019;42.626;23.380;2023-04-24T09:06:32;7.93;;;5.37;;
39300;SDS011;25019;42.626;23.380;2023-04-24T09:09:00;9.03;;;5.20;;
39300;SDS011;25019;42.626;23.380;2023-04-24T09:11:26;6.83;;;5.47;;
39300;SDS011;25019;42.626;23.380;2023-04-24T09:13:55;6.43;;;4.77;;
39300;SDS011;25019;42.626;23.380;2023-04-24T09:16:21;7.13;;;5.30;;
39300;SDS011;25019;42.626;23.380;2023-04-24T09:18:50;6.67;;;4.77;;
39300;SDS011;25019;42.626;23.380;2023-04-24T09:21:15;5.50;;;4.77;;
39300;SDS011;25019;42.626;23.380;2023-04-24T09:23:41;8.13;;;5.57;;
39300;SDS011;25019;42.626;23.380;2023-04-24T09:26:07;6.37;;;5.20;;
39300;SDS011;25019;42.626;23.380;2023-04-24T09:28:36;5.53;;;4.50;;
39300;SDS011;25019;42.626;23.380;2023-04-24T09:31:24;7.43;;;4.90;;
39300;SDS011;25019;42.626;23.380;2023-04-24T09:33:56;9.80;;;5.13;;
39300;SDS011;25019;42.626;23.380;2023-04-24T09:36:31;6.87;;;4.90;;
39300;SDS011;25019;42.626;23.380;2023-04-24T09:39:04;8.27;;;4.90;;
39300;SDS011;25019;42.626;23.380;2023-04-24T09:41:33;8.90;;;5.13;;
39300;SDS011;25019;42.626;23.380;2023-04-24T09:44:14;5.43;;;4.30;;
39300;SDS011;25019;42.626;23.380;2023-04-24T09:46:42;7.87;;;4.50;;
39300;SDS011;25019;42.626;23.380;2023-04-24T09:49:09;5.10;;;4.60;;
39300;SDS011;25019;42.626;23.380;2023-04-24T09:51:37;4.90;;;4.50;;
39300;SDS011;25019;42.626;23.380;2023-04-24T09:54:04;6.30;;;4.40;;
39300;SDS011;25019;42.626;23.380;2023-04-24T09:56:38;4.87;;;4.30;;
39300;SDS011;25019;42.626;23.380;2023-04-24T09:59:08;9.50;;;6.77;;
39300;SDS011;25019;42.626;23.380;2023-04-24T10:01:33;4.93;;;4.43;;
39300;SDS011;25019;42.626;23.380;2023-04-24T10:04:00;5.03;;;4.27;;
39300;SDS011;25019;42.626;23.380;2023-04-24T10:06:35;10.13;;;6.80;;
39300;SDS011;25019;42.626;23.380;2023-04-24T10:09:01;12.80;;;4.33;;
39300;SDS011;25019;42.626;23.380;2023-04-24T10:11:28;7.27;;;4.13;;
39300;SDS011;25019;42.626;23.380;2023-04-24T10:13:55;5.10;;;4.13;;
39300;SDS011;25019;42.626;23.380;2023-04-24T10:16:22;4.77;;;3.80;;
39300;SDS011;25019;42.626;23.380;2023-04-24T10:18:49;5.50;;;3.77;;
39300;SDS011;25019;42.626;23.380;2023-04-24T10:21:15;6.80;;;4.20;;
39300;SDS011;25019;42.626;23.380;2023-04-24T10:23:42;4.43;;;4.03;;
39300;SDS011;25019;42.626;23.380;2023-04-24T10:26:14;4.30;;;3.90;;
39300;SDS011;25019;42.626;23.380;2023-04-24T10:28:46;5.30;;;3.73;;
39300;SDS011;25019;42.626;23.380;2023-04-24T10:31:13;7.30;;;4.47;;
39300;SDS011;25019;42.626;23.380;2023-04-24T10:33:40;8.40;;;5.33;;
39300;SDS011;25019;42.626;23.380;2023-04-24T10:36:07;5.63;;;4.83;;
39300;SDS011;25019;42.626;23.380;2023-04-24T10:38:39;4.57;;;4.17;;
39300;SDS011;25019;42.626;23.380;2023-04-24T10:41:11;6.23;;;3.80;;
39300;SDS011;25019;42.626;23.380;2023-04-24T10:43:45;5.50;;;3.97;;
39300;SDS011;25019;42.626;23.380;2023-04-24T10:46:16;6.40;;;4.57;;
39300;SDS011;25019;42.626;23.380;2023-04-24T10:48:51;5.07;;;3.83;;
39300;SDS011;25019;42.626;23.380;2023-04-24T10:51:21;4.17;;;3.50;;
39300;SDS011;25019;42.626;23.380;2023-04-24T10:53:49;5.13;;;3.57;;
39300;SDS011;25019;42.626;23.380;2023-04-24T10:56:15;9.50;;;3.80;;
39300;SDS011;25019;42.626;23.380;2023-04-24T10:58:42;9.67;;;3.83;;
39300;SDS011;25019;42.626;23.380;2023-04-24T11:03:58;4.47;;;3.20;;
39300;SDS011;25019;42.626;23.380;2023-04-24T11:06:28;3.33;;;3.03;;
39300;SDS011;25019;42.626;23.380;2023-04-24T11:11:36;3.90;;;3.17;;
39300;SDS011;25019;42.626;23.380;2023-04-24T11:14:05;6.27;;;3.20;;
39300;SDS011;25019;42.626;23.380;2023-04-24T11:16:33;3.30;;;3.00;;
39300;SDS011;25019;42.626;23.380;2023-04-24T11:22:03;4.23;;;3.83;;
39300;SDS011;25019;42.626;23.380;2023-04-24T11:24:40;6.67;;;4.23;;
39300;SDS011;25019;42.626;23.380;2023-04-24T11:27:22;6.20;;;5.10;;
39300;SDS011;25019;42.626;23.380;2023-04-24T11:32:26;6.03;;;4.80;;
39300;SDS011;25019;42.626;23.380;2023-04-24T11:35:05;5.60;;;3.90;;
39300;SDS011;25019;42.626;23.380;2023-04-24T11:37:40;5.70;;;3.20;;
39300;SDS011;25019;42.626;23.380;2023-04-24T11:40:08;2.63;;;2.40;;
39300;SDS011;25019;42.626;23.380;2023-04-24T11:42:36;4.77;;;2.80;;
39300;SDS011;25019;42.626;23.380;2023-04-24T11:45:08;3.63;;;2.50;;
39300;SDS011;25019;42.626;23.380;2023-04-24T11:47:46;3.30;;;3.00;;
39300;SDS011;25019;42.626;23.380;2023-04-24T11:50:15;6.47;;;3.33;;
39300;SDS011;25019;42.626;23.380;2023-04-24T11:52:44;4.87;;;4.13;;
39300;SDS011;25019;42.626;23.380;2023-04-24T11:57:43;3.17;;;2.77;;
39300;SDS011;25019;42.626;23.380;2023-04-24T12:00:31;4.83;;;3.57;;
39300;SDS011;25019;42.626;23.380;2023-04-24T12:03:09;3.33;;;2.90;;
39300;SDS011;25019;42.626;23.380;2023-04-24T12:05:39;5.30;;;3.20;;
39300;SDS011;25019;42.626;23.380;2023-04-24T12:08:05;4.50;;;4.10;;
39300;SDS011;25019;42.626;23.380;2023-04-24T12:10:32;4.13;;;3.67;;
39300;SDS011;25019;42.626;23.380;2023-04-24T12:12:59;4.37;;;3.97;;
39300;SDS011;25019;42.626;23.380;2023-04-24T12:15:25;5.60;;;4.43;;
39300;SDS011;25019;42.626;23.380;2023-04-24T12:17:52;5.77;;;4.10;;
39300;SDS011;25019;42.626;23.380;2023-04-24T12:20:23;4.50;;;4.10;;
39300;SDS011;25019;42.626;23.380;2023-04-24T12:22:54;5.67;;;4.07;;
39300;SDS011;25019;42.626;23.380;2023-04-24T12:25:23;5.23;;;3.83;;
39300;SDS011;25019;42.626;23.380;2023-04-24T12:27:54;4.33;;;3.67;;
39300;SDS011;25019;42.626;23.380;2023-04-24T12:30:38;4.03;;;3.63;;
39300;SDS011;25019;42.626;23.380;2023-04-24T12:33:06;5.33;;;3.57;;
39300;SDS011;25019;42.626;23.380;2023-04-24T12:35:32;6.10;;;3.40;;
39300;SDS011;25019;42.626;23.380;2023-04-24T12:38:05;5.23;;;3.40;;
39300;SDS011;25019;42.626;23.380;2023-04-24T12:40:35;4.30;;;3.00;;
39300;SDS011;25019;42.626;23.380;2023-04-24T12:43:01;2.93;;;2.67;;
39300;SDS011;25019;42.626;23.380;2023-04-24T12:45:37;3.63;;;2.70;;
39300;SDS011;25019;42.626;23.380;2023-04-24T12:48:03;3.97;;;3.57;;
39300;SDS011;25019;42.626;23.380;2023-04-24T12:50:29;3.90;;;3.50;;
39300;SDS011;25019;42.626;23.380;2023-04-24T12:52:55;5.43;;;4.23;;
39300;SDS011;25019;42.626;23.380;2023-04-24T12:55:20;6.70;;;4.67;;
39300;SDS011;25019;42.626;23.380;2023-04-24T12:57:46;7.07;;;4.70;;
39300;SDS011;25019;42.626;23.380;2023-04-24T13:00:12;5.80;;;4.57;;
39300;SDS011;25019;42.626;23.380;2023-04-24T13:02:38;5.73;;;3.90;;
39300;SDS011;25019;42.626;23.380;2023-04-24T13:05:03;4.10;;;3.67;;
39300;SDS011;25019;42.626;23.380;2023-04-24T13:07:29;5.30;;;3.70;;
39300;SDS011;25019;42.626;23.380;2023-04-24T13:09:55;14.33;;;8.70;;
39300;SDS011;25019;42.626;23.380;2023-04-24T13:12:24;5.33;;;4.80;;
39300;SDS011;25019;42.626;23.380;2023-04-24T13:14:57;5.10;;;4.60;;
39300;SDS011;25019;42.626;23.380;2023-04-24T13:17:23;6.57;;;4.97;;
39300;SDS011;25019;42.626;23.380;2023-04-24T13:19:49;5.63;;;3.80;;
39300;SDS011;25019;42.626;23.380;2023-04-24T13:22:16;5.07;;;4.43;;
39300;SDS011;25019;42.626;23.380;2023-04-24T13:24:44;4.60;;;4.13;;
39300;SDS011;25019;42.626;23.380;2023-04-24T13:27:10;8.60;;;4.40;;
39300;SDS011;25019;42.626;23.380;2023-04-24T13:29:36;6.43;;;4.77;;
39300;SDS011;25019;42.626;23.380;2023-04-24T13:32:02;6.60;;;4.57;;
39300;SDS011;25019;42.626;23.380;2023-04-24T13:34:28;7.43;;;4.20;;
39300;SDS011;25019;42.626;23.380;2023-04-24T13:36:55;5.00;;;3.73;;
39300;SDS011;25019;42.626;23.380;2023-04-24T13:39:22;6.70;;;4.10;;
39300;SDS011;25019;42.626;23.380;2023-04-24T13:41:49;6.87;;;4.23;;
39300;SDS011;25019;42.626;23.380;2023-04-24T13:44:16;7.70;;;5.13;;
39300;SDS011;25019;42.626;23.380;2023-04-24T13:46:44;7.03;;;4.50;;
39300;SDS011;25019;42.626;23.380;2023-04-24T13:49:11;7.77;;;5.00;;
39300;SDS011;25019;42.626;23.380;2023-04-24T13:51:38;5.30;;;4.80;;
39300;SDS011;25019;42.626;23.380;2023-04-24T13:54:05;5.80;;;4.33;;
39300;SDS011;25019;42.626;23.380;2023-04-24T13:56:31;7.30;;;4.73;;
39300;SDS011;25019;42.626;23.380;2023-04-24T13:58:57;4.90;;;4.33;;
39300;SDS011;25019;42.626;23.380;2023-04-24T14:01:23;6.87;;;4.37;;
39300;SDS011;25019;42.626;23.380;2023-04-24T14:03:52;5.33;;;4.50;;
39300;SDS011;25019;42.626;23.380;2023-04-24T14:06:18;5.27;;;4.70;;
39300;SDS011;25019;42.626;23.380;2023-04-24T14:08:45;6.97;;;4.57;;
39300;SDS011;25019;42.626;23.380;2023-04-24T14:11:11;5.67;;;4.40;;
39300;SDS011;25019;42.626;23.380;2023-04-24T14:13:37;5.60;;;4.57;;
39300;SDS011;25019;42.626;23.380;2023-04-24T14:16:04;8.13;;;4.33;;
39300;SDS011;25019;42.626;23.380;2023-04-24T14:18:30;5.33;;;4.47;;
39300;SDS011;25019;42.626;23.380;2023-04-24T14:20:55;6.47;;;4.43;;
39300;SDS011;25019;42.626;23.380;2023-04-24T14:23:21;5.83;;;3.77;;
39300;SDS011;25019;42.626;23.380;2023-04-24T14:25:47;4.90;;;3.83;;
39300;SDS011;25019;42.626;23.380;2023-04-24T14:28:16;4.93;;;3.00;;
39300;SDS011;25019;42.626;23.380;2023-04-24T14:30:43;5.67;;;3.60;;
39300;SDS011;25019;42.626;23.380;2023-04-24T14:33:09;4.43;;;4.00;;
39300;SDS011;25019;42.626;23.380;2023-04-24T14:35:35;5.97;;;3.77;;
39300;SDS011;25019;42.626;23.380;2023-04-24T14:38:01;3.83;;;3.23;;
39300;SDS011;25019;42.626;23.380;2023-04-24T14:40:27;3.20;;;2.90;;
39300;SDS011;25019;42.626;23.380;2023-04-24T14:42:53;4.10;;;2.73;;
39300;SDS011;25019;42.626;23.380;2023-04-24T14:45:19;3.10;;;2.63;;